createdAt,value
2023-01-23T00:01:14.179Z,1.30
2023-01-23T00:04:01.826Z,1.37
2023-01-23T00:06:50.745Z,1.29
2023-01-23T00:09:37.508Z,1.37
2023-01-23T00:12:24.463Z,1.46
2023-01-23T00:15:14.296Z,1.40
2023-01-23T00:18:00.677Z,1.35
2023-01-23T00:20:47.503Z,1.30
2023-01-23T00:23:34.854Z,1.36
2023-01-23T00:26:23.504Z,1.07
2023-01-23T00:29:10.024Z,1.33
2023-01-23T00:31:58.305Z,1.39
2023-01-23T00:34:46.216Z,1.30
2023-01-23T00:37:35.434Z,1.24
2023-01-23T00:40:22.355Z,1.19
2023-01-23T00:43:08.951Z,1.12
2023-01-23T00:45:55.933Z,1.15
2023-01-23T00:48:43.679Z,1.22
2023-01-23T00:51:30.445Z,1.40
2023-01-23T00:54:17.279Z,1.28
2023-01-23T00:57:04.103Z,1.19
2023-01-23T00:59:50.949Z,1.22
2023-01-23T01:02:37.816Z,1.23
2023-01-23T01:05:25.955Z,1.15
2023-01-23T01:08:12.867Z,1.19
2023-01-23T01:10:59.539Z,1.23
2023-01-23T01:13:46.380Z,1.36
2023-01-23T01:16:33.360Z,1.28
2023-01-23T01:19:20.155Z,1.20
2023-01-23T01:22:08.318Z,0.92
2023-01-23T01:24:55.060Z,1.34
2023-01-23T01:27:41.738Z,1.24
2023-01-23T01:30:29.326Z,1.22
2023-01-23T01:33:15.856Z,1.25
2023-01-23T01:36:03.126Z,1.18
2023-01-23T01:38:52.199Z,1.21
2023-01-23T01:41:38.625Z,1.27
2023-01-23T01:44:25.819Z,1.05
2023-01-23T01:47:16.052Z,1.16
2023-01-23T01:50:05.942Z,1.16
2023-01-23T01:52:52.957Z,1.23
2023-01-23T01:55:41.729Z,1.13
2023-01-23T01:58:29.659Z,1.13
2023-01-23T02:01:17.994Z,1.12
2023-01-23T02:04:05.943Z,1.19
2023-01-23T02:06:53.941Z,1.35
2023-01-23T02:09:41.339Z,1.29
2023-01-23T02:12:29.885Z,1.31
2023-01-23T02:15:19.334Z,1.24
2023-01-23T02:18:06.057Z,1.21
2023-01-23T02:20:55.740Z,1.18
2023-01-23T02:23:57.810Z,1.15
2023-01-23T02:26:48.682Z,1.12
2023-01-23T02:29:43.262Z,1.21
2023-01-23T02:32:29.895Z,1.27
2023-01-23T02:35:24.421Z,1.21
2023-01-23T02:38:12.646Z,1.24
2023-01-23T02:41:03.470Z,1.15
2023-01-23T02:43:52.690Z,1.05
2023-01-23T02:46:39.184Z,0.99
2023-01-23T02:49:26.095Z,0.97
2023-01-23T02:52:12.706Z,1.05
2023-01-23T02:54:59.473Z,0.24
2023-01-23T02:57:46.371Z,1.22
2023-01-23T03:00:33.491Z,1.12
2023-01-23T03:03:20.148Z,1.24
2023-01-23T03:06:07.626Z,1.11
2023-01-23T03:08:56.189Z,1.11
2023-01-23T03:11:46.116Z,0.12
2023-01-23T03:14:32.639Z,0.89
2023-01-23T03:17:20.754Z,0.87
2023-01-23T03:20:08.725Z,0.96
2023-01-23T03:22:55.978Z,0.98
2023-01-23T03:25:44.734Z,0.87
2023-01-23T03:28:49.232Z,1.04
2023-01-23T03:31:36.229Z,1.13
2023-01-23T03:34:24.856Z,1.20
2023-01-23T03:37:13.133Z,1.27
2023-01-23T03:40:20.439Z,1.28
2023-01-23T03:43:07.745Z,1.23
2023-01-23T03:45:58.304Z,1.27
2023-01-23T03:48:45.504Z,1.13
2023-01-23T03:51:34.096Z,1.04
2023-01-23T03:54:21.396Z,1.10
2023-01-23T03:57:09.444Z,1.15
2023-01-23T04:00:11.283Z,0.89
2023-01-23T04:03:04.957Z,1.22
2023-01-23T04:05:57.059Z,1.28
2023-01-23T04:08:45.685Z,1.25
2023-01-23T04:11:32.259Z,1.21
2023-01-23T04:14:19.612Z,1.17
2023-01-23T04:17:07.930Z,1.16
2023-01-23T04:19:54.740Z,1.22
2023-01-23T04:22:41.513Z,1.19
2023-01-23T04:25:29.603Z,1.25
2023-01-23T04:28:16.276Z,1.21
2023-01-23T04:31:04.163Z,0.78
2023-01-23T04:33:53.519Z,1.15
2023-01-23T04:36:42.540Z,1.07
2023-01-23T04:39:29.186Z,1.10
2023-01-23T04:42:17.313Z,1.08
2023-01-23T04:45:24.161Z,1.10
2023-01-23T04:48:43.270Z,1.16
2023-01-23T04:51:30.005Z,1.23
2023-01-23T04:54:17.475Z,1.25
2023-01-23T04:57:04.185Z,1.17
2023-01-23T04:59:53.480Z,1.09
2023-01-23T05:02:41.355Z,1.02
2023-01-23T05:05:28.553Z,1.03
2023-01-23T05:08:19.394Z,1.00
2023-01-23T05:11:14.835Z,1.15
2023-01-23T05:14:01.427Z,1.11
2023-01-23T05:16:51.582Z,1.17
2023-01-23T05:19:40.011Z,1.06
2023-01-23T05:22:26.917Z,1.04
2023-01-23T05:25:13.914Z,1.11
2023-01-23T05:28:01.022Z,1.06
2023-01-23T05:30:48.387Z,1.05
2023-01-23T05:33:42.925Z,1.11
2023-01-23T05:36:31.587Z,1.10
2023-01-23T05:39:18.310Z,1.17
2023-01-23T05:42:05.444Z,1.11
2023-01-23T05:45:11.165Z,1.04
2023-01-23T05:48:01.317Z,0.92
2023-01-23T05:50:50.369Z,0.90
2023-01-23T05:53:37.492Z,0.73
2023-01-23T05:56:24.428Z,1.09
2023-01-23T05:59:30.008Z,1.08
2023-01-23T06:02:31.904Z,1.09
2023-01-23T06:05:24.662Z,0.93
2023-01-23T06:08:39.280Z,1.11
2023-01-23T06:11:27.115Z,1.16
2023-01-23T06:14:14.137Z,1.21
2023-01-23T06:17:01.117Z,1.19
2023-01-23T06:19:50.607Z,1.12
2023-01-23T06:22:38.394Z,1.04
2023-01-23T06:25:36.498Z,1.03
2023-01-23T06:28:26.184Z,0.96
2023-01-23T06:31:13.072Z,0.93
2023-01-23T06:34:08.570Z,0.94
2023-01-23T06:37:01.638Z,0.99
2023-01-23T06:39:48.482Z,1.08
2023-01-23T06:42:38.200Z,1.15
2023-01-23T06:45:24.845Z,1.10
2023-01-23T06:48:11.587Z,1.09
2023-01-23T06:51:01.128Z,1.11
2023-01-23T06:53:48.040Z,1.08
2023-01-23T06:56:36.035Z,1.09
2023-01-23T06:59:28.057Z,1.10
2023-01-23T07:02:16.433Z,1.06
2023-01-23T07:05:06.965Z,1.07
2023-01-23T07:07:53.606Z,1.00
2023-01-23T07:10:40.765Z,1.02
2023-01-23T07:13:27.594Z,0.98
2023-01-23T07:16:15.720Z,1.03
2023-01-23T07:19:05.412Z,1.05
2023-01-23T07:21:55.132Z,1.07
2023-01-23T07:24:42.000Z,1.07
2023-01-23T07:27:28.922Z,0.99
2023-01-23T07:30:19.365Z,0.92
2023-01-23T07:33:08.403Z,1.02
2023-01-23T07:35:59.069Z,0.96
2023-01-23T07:38:46.409Z,1.03
2023-01-23T07:41:33.092Z,1.06
2023-01-23T07:44:23.685Z,1.12
2023-01-23T07:47:10.666Z,1.11
2023-01-23T07:49:58.762Z,1.11
2023-01-23T07:52:45.707Z,1.13
2023-01-23T07:55:32.318Z,1.04
2023-01-23T07:58:19.158Z,1.06
2023-01-23T08:01:10.057Z,1.10
2023-01-23T08:03:56.801Z,1.18
2023-01-23T08:06:45.025Z,1.14
2023-01-23T08:09:31.528Z,1.20
2023-01-23T08:12:18.451Z,1.20
2023-01-23T08:15:06.142Z,1.15
2023-01-23T08:17:52.893Z,1.20
2023-01-23T08:20:40.051Z,1.17
2023-01-23T08:23:28.948Z,1.16
2023-01-23T08:26:17.654Z,1.05
2023-01-23T08:29:04.744Z,1.19
2023-01-23T08:31:55.082Z,1.22
2023-01-23T08:34:42.176Z,1.37
2023-01-23T08:37:28.828Z,1.41
2023-01-23T08:40:17.475Z,1.31
2023-01-23T08:43:04.060Z,1.32
2023-01-23T08:45:52.930Z,1.20
2023-01-23T08:48:39.862Z,1.26
2023-01-23T08:51:27.381Z,1.27
2023-01-23T08:54:13.993Z,1.22
2023-01-23T08:57:03.010Z,1.28
2023-01-23T08:59:49.764Z,1.36
2023-01-23T09:02:36.706Z,1.37
2023-01-23T09:05:23.490Z,1.36
2023-01-23T09:08:10.118Z,1.40
2023-01-23T09:11:01.378Z,1.37
2023-01-23T09:13:53.680Z,1.41
2023-01-23T09:16:41.533Z,1.21
2023-01-23T09:19:28.247Z,1.32
2023-01-23T09:22:14.997Z,1.27
2023-01-23T09:25:01.799Z,1.33
2023-01-23T09:27:48.679Z,1.30
2023-01-23T09:30:37.147Z,1.30
2023-01-23T09:33:27.265Z,1.28
2023-01-23T09:36:13.916Z,1.30
2023-01-23T09:39:00.743Z,1.31
2023-01-23T09:41:48.378Z,1.34
2023-01-23T09:44:39.717Z,1.25
2023-01-23T09:47:35.619Z,1.29
2023-01-23T09:50:26.665Z,1.28
2023-01-23T09:53:16.817Z,1.34
2023-01-23T09:56:08.475Z,1.34
2023-01-23T09:59:02.046Z,1.49
2023-01-23T10:01:48.449Z,1.50
2023-01-23T10:04:37.407Z,0.84
2023-01-23T10:07:46.856Z,1.56
2023-01-23T10:11:01.035Z,1.63
2023-01-23T10:14:03.593Z,1.63
2023-01-23T10:17:04.157Z,1.80
2023-01-23T10:20:14.946Z,1.61
2023-01-23T10:23:09.727Z,1.74
2023-01-23T10:25:57.312Z,1.51
2023-01-23T10:28:45.689Z,1.59
2023-01-23T10:31:40.918Z,1.71
2023-01-23T10:34:37.867Z,1.68
2023-01-23T10:37:40.779Z,1.79
2023-01-23T10:40:41.559Z,1.78
2023-01-23T10:43:28.482Z,1.87
2023-01-23T10:46:17.169Z,1.95
2023-01-23T10:49:04.113Z,1.74
2023-01-23T10:51:50.896Z,1.81
2023-01-23T10:54:46.835Z,1.84
2023-01-23T10:57:45.287Z,2.01
2023-01-23T11:00:37.808Z,1.94
2023-01-23T11:03:33.829Z,1.84
2023-01-23T11:06:25.993Z,1.88
2023-01-23T11:09:21.352Z,1.88
2023-01-23T11:12:17.198Z,1.95
2023-01-23T11:15:22.214Z,1.81
2023-01-23T11:18:33.427Z,1.88
2023-01-23T11:21:24.689Z,2.01
2023-01-23T11:24:24.841Z,1.90
2023-01-23T11:27:26.676Z,2.02
2023-01-23T11:30:37.382Z,1.96
2023-01-23T11:33:37.516Z,1.89
2023-01-23T11:36:42.443Z,1.79
2023-01-23T11:39:52.079Z,1.96
2023-01-23T11:42:43.156Z,1.97
2023-01-23T11:45:43.724Z,1.91
2023-01-23T11:48:48.328Z,2.03
2023-01-23T11:51:39.230Z,1.98
2023-01-23T11:54:56.775Z,1.91
2023-01-23T11:58:01.201Z,1.86
2023-01-23T12:00:57.871Z,1.86
2023-01-23T12:04:14.242Z,1.91
2023-01-23T12:07:21.010Z,2.25
2023-01-23T12:10:23.549Z,2.04
2023-01-23T12:13:25.349Z,2.06
2023-01-23T12:16:21.784Z,2.20
2023-01-23T12:19:22.978Z,2.14
2023-01-23T12:22:16.719Z,2.23
2023-01-23T12:25:20.436Z,2.32
2023-01-23T12:28:21.642Z,2.11
2023-01-23T12:31:24.437Z,2.18
2023-01-23T12:34:23.814Z,2.10
2023-01-23T12:37:30.793Z,1.97
2023-01-23T12:40:23.962Z,2.11
2023-01-23T12:43:15.367Z,1.91
2023-01-23T12:46:09.639Z,1.89
2023-01-23T12:49:04.028Z,1.99
2023-01-23T12:51:57.808Z,2.01
2023-01-23T12:54:47.526Z,1.94
2023-01-23T12:58:00.340Z,1.84
2023-01-23T13:01:06.629Z,1.69
2023-01-23T13:04:16.375Z,1.76
2023-01-23T13:07:27.297Z,1.46
2023-01-23T13:10:25.570Z,1.80
2023-01-23T13:13:12.027Z,1.91
2023-01-23T13:16:13.544Z,2.03
2023-01-23T13:19:19.686Z,1.92
2023-01-23T13:22:22.405Z,1.89
2023-01-23T13:25:17.722Z,1.75
2023-01-23T13:28:44.055Z,2.02
2023-01-23T13:31:45.435Z,1.96
2023-01-23T13:34:41.719Z,1.89
2023-01-23T13:37:51.504Z,1.87
2023-01-23T13:40:38.251Z,1.88
2023-01-23T13:43:45.800Z,1.85
2023-01-23T14:22:57.980Z,1.88
2023-01-23T14:25:44.961Z,1.91
2023-01-23T14:28:31.996Z,1.83
2023-01-23T14:31:24.315Z,1.87
2023-01-23T14:34:18.858Z,1.44
2023-01-23T14:37:11.592Z,1.44
2023-01-23T14:40:09.722Z,1.89
2023-01-23T14:43:02.190Z,1.80
2023-01-23T14:45:53.750Z,1.92
2023-01-23T14:48:44.031Z,1.83
2023-01-23T14:51:30.655Z,1.91
2023-01-23T14:54:22.879Z,1.88
2023-01-23T14:57:12.546Z,1.80
2023-01-23T15:00:00.362Z,1.81
2023-01-23T15:02:51.148Z,1.67
2023-01-23T15:05:39.835Z,1.67
2023-01-23T15:08:32.690Z,1.49
2023-01-23T15:11:26.508Z,1.46
2023-01-23T15:14:26.397Z,1.51
2023-01-23T15:17:18.571Z,1.54
2023-01-23T15:20:05.695Z,1.10
2023-01-23T15:22:52.442Z,1.49
2023-01-23T15:25:39.816Z,1.45
2023-01-23T15:28:40.664Z,1.43
2023-01-23T15:31:32.651Z,1.38
2023-01-23T15:34:24.062Z,1.34
2023-01-23T15:37:24.189Z,1.61
2023-01-23T15:40:17.902Z,1.60
2023-01-23T15:43:08.462Z,1.50
2023-01-23T15:45:56.385Z,1.66
2023-01-23T15:48:43.107Z,1.63
2023-01-23T15:51:30.103Z,1.58
2023-01-23T15:54:22.155Z,1.60
2023-01-23T15:57:13.117Z,1.43
2023-01-23T16:00:01.381Z,1.48
2023-01-23T16:02:56.847Z,1.50
2023-01-23T16:05:44.930Z,1.32
2023-01-23T16:08:31.656Z,1.26
2023-01-23T16:11:18.552Z,0.91
2023-01-23T16:14:05.925Z,1.29
2023-01-23T16:16:52.945Z,1.25
2023-01-23T16:19:40.831Z,1.24
2023-01-23T16:22:29.558Z,1.31
2023-01-23T16:25:19.847Z,1.28
2023-01-23T16:28:06.715Z,1.26
2023-01-23T16:30:53.501Z,1.42
2023-01-23T16:33:40.022Z,1.43
2023-01-23T16:36:28.197Z,1.19
2023-01-23T16:39:19.023Z,0.86
2023-01-23T16:42:05.871Z,1.36
2023-01-23T16:44:52.554Z,1.14
2023-01-23T16:47:39.598Z,1.07
2023-01-23T16:50:33.302Z,1.15
2023-01-23T16:53:26.207Z,1.27
2023-01-23T16:56:22.177Z,1.30
2023-01-23T16:59:15.399Z,1.10
2023-01-23T17:02:06.328Z,1.01
2023-01-23T17:04:53.054Z,1.09
2023-01-23T17:07:39.859Z,1.06
2023-01-23T17:10:37.999Z,1.20
2023-01-23T17:13:28.192Z,1.25
2023-01-23T17:16:26.504Z,1.06
2023-01-23T17:19:21.928Z,1.08
2023-01-23T17:22:18.483Z,1.15
2023-01-23T17:25:07.678Z,1.02
2023-01-23T17:28:11.547Z,1.11
2023-01-23T17:31:01.458Z,1.02
2023-01-23T17:33:48.785Z,0.95
2023-01-23T17:36:36.766Z,0.96
2023-01-23T17:39:23.271Z,0.98
2023-01-23T17:42:11.344Z,1.04
2023-01-23T17:44:59.284Z,1.05
2023-01-23T17:47:49.823Z,0.78
2023-01-23T17:50:36.839Z,1.12
2023-01-23T17:53:23.936Z,1.03
2023-01-23T17:56:11.332Z,0.96
2023-01-23T17:58:58.101Z,1.02
2023-01-23T18:01:47.775Z,0.87
2023-01-23T18:04:34.212Z,0.80
2023-01-23T18:07:21.192Z,0.80
2023-01-23T18:10:10.533Z,0.80
2023-01-23T18:13:09.711Z,0.86
2023-01-23T18:16:11.381Z,0.81
2023-01-23T18:19:01.463Z,0.66
2023-01-23T18:21:49.940Z,0.95
2023-01-23T18:24:38.482Z,0.98
2023-01-23T18:27:27.035Z,0.81
2023-01-23T18:30:35.371Z,0.81
2023-01-23T18:33:42.340Z,0.84
2023-01-23T18:36:40.890Z,0.72
2023-01-23T18:39:49.190Z,0.71
2023-01-23T18:42:39.418Z,0.80
2023-01-23T18:45:27.853Z,0.73
2023-01-23T18:48:24.543Z,0.84
2023-01-23T18:51:29.220Z,0.86
2023-01-23T18:54:29.867Z,0.92
2023-01-23T18:57:33.022Z,0.86
2023-01-23T19:00:24.818Z,0.81
2023-01-23T19:03:14.838Z,0.72
2023-01-23T19:06:01.819Z,0.79
2023-01-23T19:08:49.238Z,0.74
2023-01-23T19:11:50.723Z,0.64
2023-01-23T19:15:02.815Z,0.66
2023-01-23T19:17:53.170Z,0.64
2023-01-23T19:20:46.766Z,0.79
2023-01-23T19:23:40.258Z,0.67
2023-01-23T19:26:29.701Z,0.76
2023-01-23T19:29:22.849Z,0.69
2023-01-23T19:32:11.489Z,0.86
2023-01-23T19:35:12.486Z,0.80
2023-01-23T19:38:00.488Z,0.74
2023-01-23T19:40:48.023Z,0.88
2023-01-23T19:43:34.787Z,0.70
2023-01-23T19:46:26.553Z,0.65
2023-01-23T19:49:13.616Z,0.56
2023-01-23T19:52:00.547Z,0.76
2023-01-23T19:54:47.158Z,0.66
2023-01-23T19:57:33.959Z,0.61
2023-01-23T20:00:21.519Z,0.72
2023-01-23T20:03:13.914Z,0.69
2023-01-23T20:06:00.684Z,0.69
2023-01-23T20:08:47.345Z,0.73
2023-01-23T20:11:35.095Z,0.69
2023-01-23T20:14:22.676Z,0.65
2023-01-23T20:17:10.995Z,0.73
2023-01-23T20:20:07.827Z,0.80
2023-01-23T20:22:59.507Z,0.83
2023-01-23T20:25:47.770Z,0.77
2023-01-23T20:28:35.558Z,0.76
2023-01-23T20:31:23.745Z,0.87
2023-01-23T20:34:11.228Z,0.78
2023-01-23T20:37:10.478Z,0.71
2023-01-23T20:39:59.367Z,0.73
2023-01-23T20:42:48.092Z,0.79
2023-01-23T20:45:35.612Z,0.82
2023-01-23T20:48:22.941Z,1.03
2023-01-23T20:51:10.933Z,1.06
2023-01-23T20:54:00.307Z,0.81
2023-01-23T20:56:47.569Z,0.91
2023-01-23T20:59:33.747Z,0.98
2023-01-23T21:02:28.048Z,0.86
2023-01-23T21:05:14.826Z,0.88
2023-01-23T21:08:16.186Z,0.91
2023-01-23T21:11:08.029Z,0.79
2023-01-23T21:13:54.776Z,0.88
2023-01-23T21:16:41.661Z,0.83
2023-01-23T21:19:28.682Z,0.85
2023-01-23T21:22:17.037Z,0.80
2023-01-23T21:25:09.075Z,0.72
2023-01-23T21:28:00.102Z,0.81
2023-01-23T21:30:47.479Z,0.79
2023-01-23T21:33:34.359Z,0.82
2023-01-23T21:36:23.440Z,0.37
2023-01-23T21:39:11.569Z,0.53
2023-01-23T21:41:58.304Z,0.44
2023-01-23T21:44:46.447Z,0.43
2023-01-23T21:47:33.259Z,0.52
2023-01-23T21:50:20.042Z,0.40
2023-01-23T21:53:07.415Z,0.49
2023-01-23T21:55:54.125Z,0.48
2023-01-23T21:58:41.221Z,0.47
2023-01-23T22:01:35.599Z,0.59
2023-01-23T22:04:23.578Z,0.59
2023-01-23T22:07:11.986Z,0.53
2023-01-23T22:10:00.882Z,0.70
2023-01-23T22:12:47.608Z,0.76
2023-01-23T22:15:34.254Z,0.87
2023-01-23T22:18:22.365Z,0.91
2023-01-23T22:21:13.848Z,0.95
2023-01-23T22:24:02.600Z,1.10
2023-01-23T22:26:50.256Z,1.06
2023-01-23T22:29:43.277Z,0.71
2023-01-23T22:32:30.768Z,0.73
2023-01-23T22:35:19.084Z,0.82
2023-01-23T22:38:09.474Z,0.70
2023-01-23T22:41:00.367Z,0.62
2023-01-23T22:43:48.024Z,0.53
2023-01-23T22:46:34.861Z,0.50
2023-01-23T22:49:22.103Z,0.45
2023-01-23T22:52:10.035Z,0.59
2023-01-23T22:54:56.609Z,0.51
2023-01-23T22:57:44.001Z,0.58
2023-01-23T23:00:30.887Z,0.72
2023-01-23T23:03:17.543Z,0.61
2023-01-23T23:06:06.967Z,0.69
2023-01-23T23:08:55.930Z,0.51
2023-01-23T23:11:42.852Z,0.55
2023-01-23T23:14:29.657Z,0.61
2023-01-23T23:17:16.513Z,0.48
2023-01-23T23:20:03.324Z,0.34
2023-01-23T23:22:50.125Z,0.30
2023-01-23T23:25:38.314Z,0.40
2023-01-23T23:28:26.828Z,0.28
2023-01-23T23:31:13.328Z,0.25
2023-01-23T23:34:00.356Z,0.11
2023-01-23T23:36:46.917Z,0.07
2023-01-23T23:39:33.609Z,0.20
2023-01-23T23:42:21.506Z,0.20
2023-01-23T23:45:09.801Z,0.39
2023-01-23T23:47:56.666Z,0.56
2023-01-23T23:50:44.079Z,0.55
2023-01-23T23:53:31.233Z,0.49
2023-01-23T23:56:21.861Z,0.45
2023-01-23T23:59:14.748Z,0.48
